sensor_id;sensor_type;location;lat;lon;timestamp;P1;durP1;ratioP1;P2;durP2;ratioP2
67889;SDS011;54685;52.082;5.426;2023-05-10T00:02:10;93.10;;;39.03;;
67889;SDS011;54685;52.082;5.426;2023-05-10T00:04:40;87.65;;;39.13;;
67889;SDS011;54685;52.082;5.426;2023-05-10T00:07:07;93.22;;;39.78;;
67889;SDS011;54685;52.082;5.426;2023-05-10T00:09:34;100.78;;;40.97;;
67889;SDS011;54685;52.082;5.426;2023-05-10T00:12:01;90.65;;;41.15;;
67889;SDS011;54685;52.082;5.426;2023-05-10T00:14:27;94.65;;;39.05;;
67889;SDS011;54685;52.082;5.426;2023-05-10T00:16:55;98.60;;;41.33;;
67889;SDS011;54685;52.082;5.426;2023-05-10T00:19:22;93.78;;;39.53;;
67889;SDS011;54685;52.082;5.426;2023-05-10T00:21:49;98.82;;;40.75;;
67889;SDS011;54685;52.082;5.426;2023-05-10T00:24:15;89.85;;;40.20;;
67889;SDS011;54685;52.082;5.426;2023-05-10T00:26:42;91.75;;;40.45;;
67889;SDS011;54685;52.082;5.426;2023-05-10T00:29:10;104.05;;;42.35;;
67889;SDS011;54685;52.082;5.426;2023-05-10T00:31:37;110.65;;;43.15;;
67889;SDS011;54685;52.082;5.426;2023-05-10T00:34:04;103.28;;;42.70;;
67889;SDS011;54685;52.082;5.426;2023-05-10T00:36:31;107.50;;;42.33;;
67889;SDS011;54685;52.082;5.426;2023-05-10T00:38:58;110.03;;;42.67;;
67889;SDS011;54685;52.082;5.426;2023-05-10T00:41:26;109.50;;;43.95;;
67889;SDS011;54685;52.082;5.426;2023-05-10T00:43:53;113.40;;;44.05;;
67889;SDS011;54685;52.082;5.426;2023-05-10T00:46:20;118.50;;;46.47;;
67889;SDS011;54685;52.082;5.426;2023-05-10T00:48:48;113.10;;;44.88;;
67889;SDS011;54685;52.082;5.426;2023-05-10T00:51:15;134.63;;;46.42;;
67889;SDS011;54685;52.082;5.426;2023-05-10T00:53:43;129.38;;;47.17;;
67889;SDS011;54685;52.082;5.426;2023-05-10T00:56:12;118.47;;;45.83;;
67889;SDS011;54685;52.082;5.426;2023-05-10T00:58:39;138.90;;;46.25;;
67889;SDS011;54685;52.082;5.426;2023-05-10T01:01:07;111.43;;;45.40;;
67889;SDS011;54685;52.082;5.426;2023-05-10T01:03:35;107.05;;;43.08;;
67889;SDS011;54685;52.082;5.426;2023-05-10T01:06:03;125.90;;;46.25;;
67889;SDS011;54685;52.082;5.426;2023-05-10T01:08:30;111.03;;;44.05;;
67889;SDS011;54685;52.082;5.426;2023-05-10T01:10:57;125.32;;;45.78;;
67889;SDS011;54685;52.082;5.426;2023-05-10T01:13:32;107.38;;;42.67;;
67889;SDS011;54685;52.082;5.426;2023-05-10T01:16:02;112.13;;;43.95;;
67889;SDS011;54685;52.082;5.426;2023-05-10T01:18:30;119.03;;;44.80;;
67889;SDS011;54685;52.082;5.426;2023-05-10T01:35:18;114.30;;;44.20;;
67889;SDS011;54685;52.082;5.426;2023-05-10T01:40:40;111.70;;;43.50;;
67889;SDS011;54685;52.082;5.426;2023-05-10T01:43:17;119.68;;;44.28;;
67889;SDS011;54685;52.082;5.426;2023-05-10T01:48:26;102.25;;;40.60;;
67889;SDS011;54685;52.082;5.426;2023-05-10T01:50:55;133.63;;;46.00;;
67889;SDS011;54685;52.082;5.426;2023-05-10T01:53:25;127.88;;;45.75;;
67889;SDS011;54685;52.082;5.426;2023-05-10T01:56:44;120.43;;;43.65;;
67889;SDS011;54685;52.082;5.426;2023-05-10T01:59:15;112.80;;;42.13;;
67889;SDS011;54685;52.082;5.426;2023-05-10T02:01:45;115.40;;;42.53;;
67889;SDS011;54685;52.082;5.426;2023-05-10T02:04:16;119.25;;;43.38;;
67889;SDS011;54685;52.082;5.426;2023-05-10T02:06:45;114.70;;;43.22;;
67889;SDS011;54685;52.082;5.426;2023-05-10T02:09:14;123.28;;;45.53;;
67889;SDS011;54685;52.082;5.426;2023-05-10T02:11:42;123.03;;;46.17;;
67889;SDS011;54685;52.082;5.426;2023-05-10T02:14:11;110.05;;;42.80;;
67889;SDS011;54685;52.082;5.426;2023-05-10T02:16:38;110.20;;;43.00;;
67889;SDS011;54685;52.082;5.426;2023-05-10T02:19:07;116.15;;;43.70;;
67889;SDS011;54685;52.082;5.426;2023-05-10T02:21:35;111.45;;;43.78;;
67889;SDS011;54685;52.082;5.426;2023-05-10T02:24:04;119.40;;;44.20;;
67889;SDS011;54685;52.082;5.426;2023-05-10T02:26:32;101.45;;;41.55;;
67889;SDS011;54685;52.082;5.426;2023-05-10T02:29:01;107.53;;;42.13;;
67889;SDS011;54685;52.082;5.426;2023-05-10T02:31:32;117.93;;;45.28;;
67889;SDS011;54685;52.082;5.426;2023-05-10T02:34:01;101.25;;;42.35;;
67889;SDS011;54685;52.082;5.426;2023-05-10T02:36:30;101.03;;;42.40;;
67889;SDS011;54685;52.082;5.426;2023-05-10T02:38:58;123.75;;;46.63;;
67889;SDS011;54685;52.082;5.426;2023-05-10T02:41:28;110.20;;;44.80;;
67889;SDS011;54685;52.082;5.426;2023-05-10T02:43:59;110.07;;;45.42;;
67889;SDS011;54685;52.082;5.426;2023-05-10T02:46:31;116.63;;;45.22;;
67889;SDS011;54685;52.082;5.426;2023-05-10T02:48:58;127.05;;;46.33;;
67889;SDS011;54685;52.082;5.426;2023-05-10T02:51:25;126.97;;;47.33;;
67889;SDS011;54685;52.082;5.426;2023-05-10T02:54:06;142.82;;;50.38;;
67889;SDS011;54685;52.082;5.426;2023-05-10T02:56:42;143.98;;;50.03;;
67889;SDS011;54685;52.082;5.426;2023-05-10T02:59:17;155.43;;;53.97;;
67889;SDS011;54685;52.082;5.426;2023-05-10T03:01:44;182.30;;;54.97;;
67889;SDS011;54685;52.082;5.426;2023-05-10T03:04:12;159.77;;;55.13;;
67889;SDS011;54685;52.082;5.426;2023-05-10T03:06:39;174.73;;;55.90;;
67889;SDS011;54685;52.082;5.426;2023-05-10T03:09:06;178.25;;;56.97;;
67889;SDS011;54685;52.082;5.426;2023-05-10T03:17:06;195.82;;;57.15;;
67889;SDS011;54685;52.082;5.426;2023-05-10T03:19:40;223.52;;;60.25;;
67889;SDS011;54685;52.082;5.426;2023-05-10T03:22:17;199.23;;;57.80;;
67889;SDS011;54685;52.082;5.426;2023-05-10T03:24:56;185.30;;;55.05;;
67889;SDS011;54685;52.082;5.426;2023-05-10T03:27:28;194.35;;;56.22;;
67889;SDS011;54685;52.082;5.426;2023-05-10T03:29:58;198.70;;;57.88;;
67889;SDS011;54685;52.082;5.426;2023-05-10T03:32:31;180.52;;;54.33;;
67889;SDS011;54685;52.082;5.426;2023-05-10T03:35:00;181.48;;;56.15;;
67889;SDS011;54685;52.082;5.426;2023-05-10T03:37:34;194.02;;;56.38;;
67889;SDS011;54685;52.082;5.426;2023-05-10T03:40:02;196.52;;;56.42;;
67889;SDS011;54685;52.082;5.426;2023-05-10T03:42:32;178.20;;;54.05;;
67889;SDS011;54685;52.082;5.426;2023-05-10T03:44:59;166.45;;;53.40;;
67889;SDS011;54685;52.082;5.426;2023-05-10T03:47:26;182.95;;;54.28;;
67889;SDS011;54685;52.082;5.426;2023-05-10T03:49:53;141.32;;;50.78;;
67889;SDS011;54685;52.082;5.426;2023-05-10T03:52:20;151.70;;;49.42;;
67889;SDS011;54685;52.082;5.426;2023-05-10T03:54:47;137.57;;;46.90;;
67889;SDS011;54685;52.082;5.426;2023-05-10T03:57:14;142.67;;;48.40;;
67889;SDS011;54685;52.082;5.426;2023-05-10T03:59:41;149.65;;;47.85;;
67889;SDS011;54685;52.082;5.426;2023-05-10T04:02:08;125.22;;;43.42;;
67889;SDS011;54685;52.082;5.426;2023-05-10T04:04:35;129.77;;;45.17;;
67889;SDS011;54685;52.082;5.426;2023-05-10T04:07:02;116.80;;;43.33;;
67889;SDS011;54685;52.082;5.426;2023-05-10T04:09:29;135.40;;;46.03;;
67889;SDS011;54685;52.082;5.426;2023-05-10T04:11:57;146.13;;;46.63;;
67889;SDS011;54685;52.082;5.426;2023-05-10T04:14:25;158.98;;;48.92;;
67889;SDS011;54685;52.082;5.426;2023-05-10T04:16:52;125.40;;;44.60;;
67889;SDS011;54685;52.082;5.426;2023-05-10T04:19:19;113.55;;;41.10;;
67889;SDS011;54685;52.082;5.426;2023-05-10T04:21:46;118.07;;;41.95;;
67889;SDS011;54685;52.082;5.426;2023-05-10T04:24:13;113.00;;;40.65;;
67889;SDS011;54685;52.082;5.426;2023-05-10T04:26:41;141.60;;;45.63;;
67889;SDS011;54685;52.082;5.426;2023-05-10T04:29:07;138.88;;;45.67;;
67889;SDS011;54685;52.082;5.426;2023-05-10T04:31:35;124.63;;;43.15;;
67889;SDS011;54685;52.082;5.426;2023-05-10T04:34:02;125.38;;;44.15;;
67889;SDS011;54685;52.082;5.426;2023-05-10T04:36:29;146.48;;;45.75;;
67889;SDS011;54685;52.082;5.426;2023-05-10T04:38:59;122.35;;;43.63;;
67889;SDS011;54685;52.082;5.426;2023-05-10T04:41:26;124.10;;;42.47;;
67889;SDS011;54685;52.082;5.426;2023-05-10T04:43:53;131.65;;;45.13;;
67889;SDS011;54685;52.082;5.426;2023-05-10T04:46:20;156.82;;;49.78;;
67889;SDS011;54685;52.082;5.426;2023-05-10T04:48:47;132.02;;;44.42;;
67889;SDS011;54685;52.082;5.426;2023-05-10T04:51:14;129.68;;;44.65;;
67889;SDS011;54685;52.082;5.426;2023-05-10T04:53:41;133.57;;;44.92;;
67889;SDS011;54685;52.082;5.426;2023-05-10T04:56:16;132.77;;;45.55;;
67889;SDS011;54685;52.082;5.426;2023-05-10T04:58:43;133.10;;;45.25;;
67889;SDS011;54685;52.082;5.426;2023-05-10T05:01:10;141.38;;;47.10;;
67889;SDS011;54685;52.082;5.426;2023-05-10T05:03:43;122.43;;;43.05;;
67889;SDS011;54685;52.082;5.426;2023-05-10T05:06:10;126.38;;;44.97;;
67889;SDS011;54685;52.082;5.426;2023-05-10T05:08:37;146.25;;;51.10;;
67889;SDS011;54685;52.082;5.426;2023-05-10T05:11:06;126.22;;;45.47;;
67889;SDS011;54685;52.082;5.426;2023-05-10T05:13:33;126.38;;;46.53;;
67889;SDS011;54685;52.082;5.426;2023-05-10T05:16:01;151.90;;;50.65;;
67889;SDS011;54685;52.082;5.426;2023-05-10T05:18:29;140.73;;;48.80;;
67889;SDS011;54685;52.082;5.426;2023-05-10T05:20:56;164.00;;;51.15;;
67889;SDS011;54685;52.082;5.426;2023-05-10T05:23:23;136.68;;;46.03;;
67889;SDS011;54685;52.082;5.426;2023-05-10T05:25:53;134.90;;;46.17;;
67889;SDS011;54685;52.082;5.426;2023-05-10T05:28:21;158.50;;;51.05;;
67889;SDS011;54685;52.082;5.426;2023-05-10T05:30:48;142.35;;;47.28;;
67889;SDS011;54685;52.082;5.426;2023-05-10T05:33:15;171.80;;;53.88;;
67889;SDS011;54685;52.082;5.426;2023-05-10T05:35:42;118.88;;;44.88;;
67889;SDS011;54685;52.082;5.426;2023-05-10T05:38:16;130.10;;;46.90;;
67889;SDS011;54685;52.082;5.426;2023-05-10T05:40:44;120.35;;;45.75;;
67889;SDS011;54685;52.082;5.426;2023-05-10T05:43:11;124.10;;;46.33;;
67889;SDS011;54685;52.082;5.426;2023-05-10T05:45:39;141.43;;;49.60;;
67889;SDS011;54685;52.082;5.426;2023-05-10T05:48:06;156.25;;;56.22;;
67889;SDS011;54685;52.082;5.426;2023-05-10T05:50:33;143.15;;;51.67;;
67889;SDS011;54685;52.082;5.426;2023-05-10T05:53:00;155.70;;;52.08;;
67889;SDS011;54685;52.082;5.426;2023-05-10T05:55:27;170.57;;;53.95;;
67889;SDS011;54685;52.082;5.426;2023-05-10T05:57:55;170.55;;;53.92;;
67889;SDS011;54685;52.082;5.426;2023-05-10T06:00:22;141.38;;;51.10;;
67889;SDS011;54685;52.082;5.426;2023-05-10T06:02:50;150.38;;;50.58;;
67889;SDS011;54685;52.082;5.426;2023-05-10T06:05:17;142.98;;;51.35;;
67889;SDS011;54685;52.082;5.426;2023-05-10T06:07:45;150.77;;;52.25;;
67889;SDS011;54685;52.082;5.426;2023-05-10T06:10:12;152.23;;;53.22;;
67889;SDS011;54685;52.082;5.426;2023-05-10T06:12:39;139.50;;;50.72;;
67889;SDS011;54685;52.082;5.426;2023-05-10T06:15:08;133.13;;;50.63;;
67889;SDS011;54685;52.082;5.426;2023-05-10T06:17:36;111.10;;;47.25;;
67889;SDS011;54685;52.082;5.426;2023-05-10T06:20:03;115.60;;;46.47;;
67889;SDS011;54685;52.082;5.426;2023-05-10T06:22:30;113.97;;;45.55;;
67889;SDS011;54685;52.082;5.426;2023-05-10T06:24:57;101.38;;;45.15;;
67889;SDS011;54685;52.082;5.426;2023-05-10T06:27:24;104.00;;;43.35;;
67889;SDS011;54685;52.082;5.426;2023-05-10T06:29:51;100.55;;;42.95;;
67889;SDS011;54685;52.082;5.426;2023-05-10T06:32:31;93.40;;;41.85;;
67889;SDS011;54685;52.082;5.426;2023-05-10T06:34:58;132.38;;;47.65;;
67889;SDS011;54685;52.082;5.426;2023-05-10T06:37:25;127.63;;;46.90;;
67889;SDS011;54685;52.082;5.426;2023-05-10T06:39:51;117.85;;;45.67;;
67889;SDS011;54685;52.082;5.426;2023-05-10T06:42:21;120.30;;;44.42;;
67889;SDS011;54685;52.082;5.426;2023-05-10T06:44:48;124.43;;;46.10;;
67889;SDS011;54685;52.082;5.426;2023-05-10T06:47:15;134.32;;;45.40;;
67889;SDS011;54685;52.082;5.426;2023-05-10T06:49:42;124.68;;;44.05;;
67889;SDS011;54685;52.082;5.426;2023-05-10T06:52:12;110.53;;;41.92;;
67889;SDS011;54685;52.082;5.426;2023-05-10T06:54:38;111.15;;;41.38;;
67889;SDS011;54685;52.082;5.426;2023-05-10T06:57:05;101.93;;;39.22;;
67889;SDS011;54685;52.082;5.426;2023-05-10T06:59:51;85.32;;;35.03;;
67889;SDS011;54685;52.082;5.426;2023-05-10T07:02:18;71.18;;;32.38;;
67889;SDS011;54685;52.082;5.426;2023-05-10T07:04:46;66.88;;;31.60;;
67889;SDS011;54685;52.082;5.426;2023-05-10T07:07:14;60.13;;;29.10;;
67889;SDS011;54685;52.082;5.426;2023-05-10T07:09:43;54.67;;;27.33;;
67889;SDS011;54685;52.082;5.426;2023-05-10T07:12:11;59.00;;;27.23;;
67889;SDS011;54685;52.082;5.426;2023-05-10T07:14:40;44.28;;;23.63;;
67889;SDS011;54685;52.082;5.426;2023-05-10T07:17:10;40.60;;;19.60;;
67889;SDS011;54685;52.082;5.426;2023-05-10T07:19:37;32.33;;;17.42;;
67889;SDS011;54685;52.082;5.426;2023-05-10T07:22:04;27.45;;;16.77;;
67889;SDS011;54685;52.082;5.426;2023-05-10T07:24:31;25.48;;;16.23;;
67889;SDS011;54685;52.082;5.426;2023-05-10T07:26:59;23.33;;;14.90;;
67889;SDS011;54685;52.082;5.426;2023-05-10T07:29:26;20.30;;;14.50;;
67889;SDS011;54685;52.082;5.426;2023-05-10T07:31:53;25.20;;;14.10;;
67889;SDS011;54685;52.082;5.426;2023-05-10T07:34:23;26.50;;;14.07;;
67889;SDS011;54685;52.082;5.426;2023-05-10T07:36:52;23.17;;;12.70;;
67889;SDS011;54685;52.082;5.426;2023-05-10T07:39:19;22.83;;;13.07;;
67889;SDS011;54685;52.082;5.426;2023-05-10T07:41:53;20.27;;;12.57;;
67889;SDS011;54685;52.082;5.426;2023-05-10T07:44:21;18.63;;;13.10;;
67889;SDS011;54685;52.082;5.426;2023-05-10T07:46:48;24.17;;;14.93;;
67889;SDS011;54685;52.082;5.426;2023-05-10T07:49:15;25.58;;;14.23;;
67889;SDS011;54685;52.082;5.426;2023-05-10T07:51:42;23.63;;;14.13;;
67889;SDS011;54685;52.082;5.426;2023-05-10T07:54:09;25.05;;;14.88;;
67889;SDS011;54685;52.082;5.426;2023-05-10T07:56:36;21.73;;;14.20;;
67889;SDS011;54685;52.082;5.426;2023-05-10T07:59:03;23.30;;;14.25;;
67889;SDS011;54685;52.082;5.426;2023-05-10T08:01:31;21.50;;;13.75;;
67889;SDS011;54685;52.082;5.426;2023-05-10T08:03:59;20.95;;;13.20;;
67889;SDS011;54685;52.082;5.426;2023-05-10T08:06:28;22.58;;;13.27;;
67889;SDS011;54685;52.082;5.426;2023-05-10T08:09:02;21.83;;;13.88;;
67889;SDS011;54685;52.082;5.426;2023-05-10T08:11:29;21.30;;;14.15;;
67889;SDS011;54685;52.082;5.426;2023-05-10T08:13:58;21.02;;;14.27;;
67889;SDS011;54685;52.082;5.426;2023-05-10T08:16:25;23.25;;;15.00;;
67889;SDS011;54685;52.082;5.426;2023-05-10T08:18:53;22.75;;;13.65;;
67889;SDS011;54685;52.082;5.426;2023-05-10T08:21:21;25.17;;;14.38;;
67889;SDS011;54685;52.082;5.426;2023-05-10T08:23:49;24.52;;;15.10;;
67889;SDS011;54685;52.082;5.426;2023-05-10T08:26:16;20.98;;;14.02;;
67889;SDS011;54685;52.082;5.426;2023-05-10T08:28:43;24.40;;;14.70;;
67889;SDS011;54685;52.082;5.426;2023-05-10T08:31:10;18.13;;;12.55;;
67889;SDS011;54685;52.082;5.426;2023-05-10T08:33:37;23.33;;;13.52;;
67889;SDS011;54685;52.082;5.426;2023-05-10T08:36:04;18.00;;;13.43;;
67889;SDS011;54685;52.082;5.426;2023-05-10T08:38:30;18.98;;;12.50;;
67889;SDS011;54685;52.082;5.426;2023-05-10T08:40:57;18.88;;;13.02;;
67889;SDS011;54685;52.082;5.426;2023-05-10T08:43:26;17.90;;;13.20;;
67889;SDS011;54685;52.082;5.426;2023-05-10T08:45:55;17.13;;;12.80;;
67889;SDS011;54685;52.082;5.426;2023-05-10T08:48:23;16.33;;;12.18;;
67889;SDS011;54685;52.082;5.426;2023-05-10T08:50:52;21.05;;;14.50;;
67889;SDS011;54685;52.082;5.426;2023-05-10T08:53:23;22.27;;;14.50;;
67889;SDS011;54685;52.082;5.426;2023-05-10T08:55:52;20.13;;;13.48;;
67889;SDS011;54685;52.082;5.426;2023-05-10T08:58:20;19.15;;;13.18;;
67889;SDS011;54685;52.082;5.426;2023-05-10T09:00:48;18.27;;;13.50;;
67889;SDS011;54685;52.082;5.426;2023-05-10T09:03:17;19.35;;;14.77;;
67889;SDS011;54685;52.082;5.426;2023-05-10T09:05:44;20.00;;;14.07;;
67889;SDS011;54685;52.082;5.426;2023-05-10T09:08:14;18.95;;;14.02;;
67889;SDS011;54685;52.082;5.426;2023-05-10T09:10:45;21.58;;;14.35;;
67889;SDS011;54685;52.082;5.426;2023-05-10T09:13:18;18.65;;;13.73;;
67889;SDS011;54685;52.082;5.426;2023-05-10T09:15:48;19.70;;;13.30;;
67889;SDS011;54685;52.082;5.426;2023-05-10T09:18:15;21.50;;;14.02;;
67889;SDS011;54685;52.082;5.426;2023-05-10T09:20:42;16.90;;;12.18;;
67889;SDS011;54685;52.082;5.426;2023-05-10T09:23:09;16.23;;;11.95;;
67889;SDS011;54685;52.082;5.426;2023-05-10T09:25:36;14.82;;;11.55;;
67889;SDS011;54685;52.082;5.426;2023-05-10T09:28:08;15.50;;;10.73;;
67889;SDS011;54685;52.082;5.426;2023-05-10T09:30:36;14.25;;;9.20;;
67889;SDS011;54685;52.082;5.426;2023-05-10T09:33:03;15.15;;;9.27;;
67889;SDS011;54685;52.082;5.426;2023-05-10T09:35:39;10.48;;;7.65;;
67889;SDS011;54685;52.082;5.426;2023-05-10T09:38:06;10.70;;;7.18;;
67889;SDS011;54685;52.082;5.426;2023-05-10T09:40:33;9.35;;;7.57;;
67889;SDS011;54685;52.082;5.426;2023-05-10T09:43:01;8.80;;;6.63;;
67889;SDS011;54685;52.082;5.426;2023-05-10T09:45:32;7.72;;;5.55;;
67889;SDS011;54685;52.082;5.426;2023-05-10T09:48:04;5.85;;;5.22;;
67889;SDS011;54685;52.082;5.426;2023-05-10T09:50:31;8.93;;;6.38;;
67889;SDS011;54685;52.082;5.426;2023-05-10T09:52:59;10.13;;;7.15;;
67889;SDS011;54685;52.082;5.426;2023-05-10T09:55:42;9.02;;;7.00;;
67889;SDS011;54685;52.082;5.426;2023-05-10T09:58:11;8.85;;;6.70;;
67889;SDS011;54685;52.082;5.426;2023-05-10T10:00:42;11.35;;;7.50;;
67889;SDS011;54685;52.082;5.426;2023-05-10T10:03:14;9.35;;;6.70;;
67889;SDS011;54685;52.082;5.426;2023-05-10T10:05:43;8.82;;;6.85;;
67889;SDS011;54685;52.082;5.426;2023-05-10T10:08:10;7.72;;;6.85;;
67889;SDS011;54685;52.082;5.426;2023-05-10T10:10:39;14.60;;;7.03;;
67889;SDS011;54685;52.082;5.426;2023-05-10T10:13:09;8.27;;;6.22;;
67889;SDS011;54685;52.082;5.426;2023-05-10T10:15:36;7.30;;;5.55;;
67889;SDS011;54685;52.082;5.426;2023-05-10T10:18:03;7.78;;;5.97;;
67889;SDS011;54685;52.082;5.426;2023-05-10T10:20:32;7.63;;;6.07;;
67889;SDS011;54685;52.082;5.426;2023-05-10T10:22:58;6.40;;;5.80;;
67889;SDS011;54685;52.082;5.426;2023-05-10T10:25:25;7.55;;;5.22;;
67889;SDS011;54685;52.082;5.426;2023-05-10T10:30:36;11.73;;;7.47;;
67889;SDS011;54685;52.082;5.426;2023-05-10T10:36:00;12.40;;;7.97;;
67889;SDS011;54685;52.082;5.426;2023-05-10T10:38:54;10.27;;;7.00;;
67889;SDS011;54685;52.082;5.426;2023-05-10T10:57:43;13.00;;;8.07;;
67889;SDS011;54685;52.082;5.426;2023-05-10T11:00:20;11.63;;;7.28;;
67889;SDS011;54685;52.082;5.426;2023-05-10T11:02:49;9.70;;;6.95;;
67889;SDS011;54685;52.082;5.426;2023-05-10T11:05:24;8.50;;;6.90;;
67889;SDS011;54685;52.082;5.426;2023-05-10T11:08:10;8.57;;;6.25;;
67889;SDS011;54685;52.082;5.426;2023-05-10T11:10:51;8.25;;;7.03;;
67889;SDS011;54685;52.082;5.426;2023-05-10T11:16:29;7.05;;;6.35;;
67889;SDS011;54685;52.082;5.426;2023-05-10T11:19:11;9.52;;;6.50;;
67889;SDS011;54685;52.082;5.426;2023-05-10T11:21:50;7.20;;;6.13;;
67889;SDS011;54685;52.082;5.426;2023-05-10T11:24:21;6.97;;;5.35;;
67889;SDS011;54685;52.082;5.426;2023-05-10T11:26:53;8.55;;;6.55;;
67889;SDS011;54685;52.082;5.426;2023-05-10T11:29:20;9.18;;;6.55;;
67889;SDS011;54685;52.082;5.426;2023-05-10T11:31:47;7.00;;;5.90;;
67889;SDS011;54685;52.082;5.426;2023-05-10T11:34:29;8.90;;;5.95;;
67889;SDS011;54685;52.082;5.426;2023-05-10T11:36:57;12.05;;;8.02;;
67889;SDS011;54685;52.082;5.426;2023-05-10T11:39:28;10.88;;;6.70;;
67889;SDS011;54685;52.082;5.426;2023-05-10T11:41:59;6.90;;;5.30;;
67889;SDS011;54685;52.082;5.426;2023-05-10T11:44:32;6.38;;;5.68;;
67889;SDS011;54685;52.082;5.426;2023-05-10T11:47:02;9.63;;;6.07;;
67889;SDS011;54685;52.082;5.426;2023-05-10T11:49:29;8.80;;;5.85;;
67889;SDS011;54685;52.082;5.426;2023-05-10T11:52:03;7.68;;;5.97;;
67889;SDS011;54685;52.082;5.426;2023-05-10T11:54:32;8.05;;;5.05;;
67889;SDS011;54685;52.082;5.426;2023-05-10T11:57:01;7.40;;;5.22;;
67889;SDS011;54685;52.082;5.426;2023-05-10T11:59:30;9.27;;;4.60;;
67889;SDS011;54685;52.082;5.426;2023-05-10T12:01:57;7.63;;;4.63;;
67889;SDS011;54685;52.082;5.426;2023-05-10T12:04:24;4.70;;;4.15;;
67889;SDS011;54685;52.082;5.426;2023-05-10T12:06:52;7.07;;;4.68;;
67889;SDS011;54685;52.082;5.426;2023-05-10T12:09:19;7.93;;;4.00;;
67889;SDS011;54685;52.082;5.426;2023-05-10T12:12:06;5.85;;;4.00;;
67889;SDS011;54685;52.082;5.426;2023-05-10T12:14:34;5.95;;;3.90;;
67889;SDS011;54685;52.082;5.426;2023-05-10T12:17:02;4.97;;;3.70;;
67889;SDS011;54685;52.082;5.426;2023-05-10T12:19:36;6.22;;;3.53;;
67889;SDS011;54685;52.082;5.426;2023-05-10T12:22:05;5.20;;;3.20;;
67889;SDS011;54685;52.082;5.426;2023-05-10T12:24:36;5.80;;;3.17;;
67889;SDS011;54685;52.082;5.426;2023-05-10T12:29:34;5.70;;;3.90;;
67889;SDS011;54685;52.082;5.426;2023-05-10T12:32:01;6.57;;;3.80;;
67889;SDS011;54685;52.082;5.426;2023-05-10T12:34:32;4.35;;;3.28;;
67889;SDS011;54685;52.082;5.426;2023-05-10T12:37:00;4.82;;;3.13;;
67889;SDS011;54685;52.082;5.426;2023-05-10T12:39:40;4.82;;;3.17;;
67889;SDS011;54685;52.082;5.426;2023-05-10T12:42:08;3.47;;;3.05;;
67889;SDS011;54685;52.082;5.426;2023-05-10T12:44:36;5.47;;;3.28;;
67889;SDS011;54685;52.082;5.426;2023-05-10T12:47:02;5.00;;;3.35;;
67889;SDS011;54685;52.082;5.426;2023-05-10T12:49:29;5.15;;;3.60;;
67889;SDS011;54685;52.082;5.426;2023-05-10T12:51:58;4.35;;;3.47;;
67889;SDS011;54685;52.082;5.426;2023-05-10T12:54:25;4.82;;;3.30;;
67889;SDS011;54685;52.082;5.426;2023-05-10T12:56:55;5.82;;;3.40;;
67889;SDS011;54685;52.082;5.426;2023-05-10T12:59:22;4.78;;;2.72;;
67889;SDS011;54685;52.082;5.426;2023-05-10T13:01:49;5.60;;;3.40;;
67889;SDS011;54685;52.082;5.426;2023-05-10T13:04:17;4.35;;;3.85;;
67889;SDS011;54685;52.082;5.426;2023-05-10T13:06:44;5.50;;;4.95;;
67889;SDS011;54685;52.082;5.426;2023-05-10T13:09:11;5.72;;;4.47;;
67889;SDS011;54685;52.082;5.426;2023-05-10T13:11:38;5.13;;;4.72;;
67889;SDS011;54685;52.082;5.426;2023-05-10T13:14:06;5.70;;;5.10;;
67889;SDS011;54685;52.082;5.426;2023-05-10T13:16:33;5.53;;;5.05;;
67889;SDS011;54685;52.082;5.426;2023-05-10T13:19:00;5.57;;;5.03;;
67889;SDS011;54685;52.082;5.426;2023-05-10T13:21:26;6.20;;;5.60;;
67889;SDS011;54685;52.082;5.426;2023-05-10T13:23:54;10.00;;;6.10;;
67889;SDS011;54685;52.082;5.426;2023-05-10T13:26:20;9.38;;;6.30;;
67889;SDS011;54685;52.082;5.426;2023-05-10T13:28:47;6.32;;;5.57;;
67889;SDS011;54685;52.082;5.426;2023-05-10T13:31:15;8.65;;;7.03;;
67889;SDS011;54685;52.082;5.426;2023-05-10T13:33:41;12.30;;;8.70;;
67889;SDS011;54685;52.082;5.426;2023-05-10T13:36:08;9.23;;;6.43;;
67889;SDS011;54685;52.082;5.426;2023-05-10T13:38:35;9.70;;;6.60;;
67889;SDS011;54685;52.082;5.426;2023-05-10T13:41:02;8.15;;;5.47;;
67889;SDS011;54685;52.082;5.426;2023-05-10T13:43:30;9.48;;;5.78;;
67889;SDS011;54685;52.082;5.426;2023-05-10T13:45:56;7.82;;;5.70;;
67889;SDS011;54685;52.082;5.426;2023-05-10T13:48:26;6.93;;;5.50;;
67889;SDS011;54685;52.082;5.426;2023-05-10T13:50:56;7.18;;;5.20;;
67889;SDS011;54685;52.082;5.426;2023-05-10T13:53:22;8.80;;;5.80;;
67889;SDS011;54685;52.082;5.426;2023-05-10T13:55:50;8.82;;;6.00;;
67889;SDS011;54685;52.082;5.426;2023-05-10T13:58:16;9.73;;;6.10;;
67889;SDS011;54685;52.082;5.426;2023-05-10T14:00:43;12.80;;;6.10;;
67889;SDS011;54685;52.082;5.426;2023-05-10T14:03:10;11.73;;;6.32;;
67889;SDS011;54685;52.082;5.426;2023-05-10T14:05:38;10.50;;;6.10;;
67889;SDS011;54685;52.082;5.426;2023-05-10T14:08:05;11.68;;;6.90;;
67889;SDS011;54685;52.082;5.426;2023-05-10T14:10:32;14.23;;;6.75;;
67889;SDS011;54685;52.082;5.426;2023-05-10T14:12:59;11.98;;;7.25;;
67889;SDS011;54685;52.082;5.426;2023-05-10T14:15:26;14.20;;;7.97;;
67889;SDS011;54685;52.082;5.426;2023-05-10T14:17:53;13.52;;;7.38;;
67889;SDS011;54685;52.082;5.426;2023-05-10T14:20:20;14.35;;;7.60;;
67889;SDS011;54685;52.082;5.426;2023-05-10T14:22:47;15.48;;;8.02;;
67889;SDS011;54685;52.082;5.426;2023-05-10T14:25:15;13.55;;;8.85;;
67889;SDS011;54685;52.082;5.426;2023-05-10T14:27:42;13.55;;;8.57;;
67889;SDS011;54685;52.082;5.426;2023-05-10T14:30:09;15.02;;;9.60;;
67889;SDS011;54685;52.082;5.426;2023-05-10T14:32:36;16.42;;;9.35;;
67889;SDS011;54685;52.082;5.426;2023-05-10T14:35:04;20.63;;;12.35;;
67889;SDS011;54685;52.082;5.426;2023-05-10T14:37:32;20.38;;;11.52;;
67889;SDS011;54685;52.082;5.426;2023-05-10T14:40:01;17.17;;;10.48;;
67889;SDS011;54685;52.082;5.426;2023-05-10T14:42:30;19.00;;;10.63;;
67889;SDS011;54685;52.082;5.426;2023-05-10T14:44:57;17.42;;;9.65;;
67889;SDS011;54685;52.082;5.426;2023-05-10T14:47:24;19.40;;;10.65;;
67889;SDS011;54685;52.082;5.426;2023-05-10T14:49:51;16.23;;;9.85;;
67889;SDS011;54685;52.082;5.426;2023-05-10T14:52:18;15.27;;;9.65;;
67889;SDS011;54685;52.082;5.426;2023-05-10T14:54:45;17.85;;;10.20;;
67889;SDS011;54685;52.082;5.426;2023-05-10T14:57:14;17.98;;;10.45;;
67889;SDS011;54685;52.082;5.426;2023-05-10T14:59:41;15.85;;;10.32;;
67889;SDS011;54685;52.082;5.426;2023-05-10T15:02:08;25.30;;;11.32;;
67889;SDS011;54685;52.082;5.426;2023-05-10T15:04:37;15.13;;;10.07;;
67889;SDS011;54685;52.082;5.426;2023-05-10T15:07:04;12.90;;;9.35;;
67889;SDS011;54685;52.082;5.426;2023-05-10T15:09:31;19.30;;;10.40;;
67889;SDS011;54685;52.082;5.426;2023-05-10T15:11:58;18.58;;;10.20;;
67889;SDS011;54685;52.082;5.426;2023-05-10T15:14:26;20.05;;;11.15;;
67889;SDS011;54685;52.082;5.426;2023-05-10T15:16:52;14.02;;;9.35;;
67889;SDS011;54685;52.082;5.426;2023-05-10T15:19:20;15.70;;;10.02;;
67889;SDS011;54685;52.082;5.426;2023-05-10T15:21:47;16.20;;;10.27;;
67889;SDS011;54685;52.082;5.426;2023-05-10T15:24:14;16.08;;;10.02;;
67889;SDS011;54685;52.082;5.426;2023-05-10T15:26:41;15.43;;;9.65;;